Time;durP1;ratioP1;P1;durP2;ratioP2;P2;SDS_P1;SDS_P2;PMS_P1;PMS_P2;Temp;Humidity;BMP_temperature;BMP_pressure;BME280_temperature;BME280_humidity;BME280_pressure;Samples;Min_cycle;Max_cycle;Signal;HPM_P1;HPM_P2
2023/10/25 00:00:01;;;;;;;11.82;8.68;;;;;;;;;;2063504;28;20027;-77
2023/10/25 00:01:22;;;;;;;14.73;8.10;;;;;;;;;;2060382;28;20430;-77
2023/10/25 00:02:43;;;;;;;15.32;8.43;;;;;;;;;;2073895;28;20037;-77
2023/10/25 00:04:04;;;;;;;12.07;8.40;;;;;;;;;;2069621;28;20349;-77
2023/10/25 00:05:25;;;;;;;12.00;8.38;;;;;;;;;;2072033;28;20092;-76
2023/10/25 00:06:46;;;;;;;12.32;8.93;;;;;;;;;;2063661;28;20030;-76
2023/10/25 00:08:06;;;;;;;11.88;8.88;;;;;;;;;;2069833;28;20038;-77
2023/10/25 00:09:27;;;;;;;15.15;8.63;;;;;;;;;;2070557;28;20080;-77
2023/10/25 00:10:48;;;;;;;12.48;8.38;;;;;;;;;;2071403;28;20041;-77
2023/10/25 00:12:09;;;;;;;13.10;8.88;;;;;;;;;;2072234;28;20033;-77
2023/10/25 00:13:30;;;;;;;14.00;9.23;;;;;;;;;;2070054;28;20030;-77
2023/10/25 00:14:52;;;;;;;15.13;9.18;;;;;;;;;;2069642;28;20046;-77
2023/10/25 00:16:13;;;;;;;13.55;8.65;;;;;;;;;;2068321;28;20030;-77
2023/10/25 00:17:34;;;;;;;13.05;10.45;;;;;;;;;;2063033;28;20049;-77
2023/10/25 00:18:55;;;;;;;12.57;8.93;;;;;;;;;;2061083;28;20058;-77
2023/10/25 00:20:16;;;;;;;12.85;8.85;;;;;;;;;;2066823;28;20505;-77
2023/10/25 00:21:37;;;;;;;15.00;8.48;;;;;;;;;;2066027;28;20042;-76
2023/10/25 00:22:58;;;;;;;13.07;9.30;;;;;;;;;;2059694;28;20497;-77
2023/10/25 00:24:19;;;;;;;13.27;9.65;;;;;;;;;;2059924;28;20633;-77
2023/10/25 00:25:40;;;;;;;13.75;8.85;;;;;;;;;;2067124;28;20414;-77
2023/10/25 00:27:00;;;;;;;10.98;8.77;;;;;;;;;;2073513;28;20041;-77
2023/10/25 00:28:21;;;;;;;10.90;8.30;;;;;;;;;;2071190;28;20048;-77
2023/10/25 00:29:42;;;;;;;13.50;8.85;;;;;;;;;;2070283;28;20037;-77
2023/10/25 00:31:03;;;;;;;13.38;8.68;;;;;;;;;;2070412;28;20022;-77
2023/10/25 00:32:24;;;;;;;15.45;8.48;;;;;;;;;;2062426;28;20056;-76
2023/10/25 00:33:45;;;;;;;15.85;9.48;;;;;;;;;;2066612;28;20081;-77
2023/10/25 00:35:06;;;;;;;13.68;8.68;;;;;;;;;;2072476;28;20049;-76
2023/10/25 00:36:27;;;;;;;11.50;8.63;;;;;;;;;;2074087;28;20069;-76
2023/10/25 00:37:48;;;;;;;12.32;8.43;;;;;;;;;;2073580;28;20026;-77
2023/10/25 00:39:09;;;;;;;11.80;9.07;;;;;;;;;;2073589;28;20049;-77
2023/10/25 00:40:30;;;;;;;14.20;8.57;;;;;;;;;;2073128;28;20029;-76
2023/10/25 00:41:51;;;;;;;14.93;9.20;;;;;;;;;;2072794;28;20389;-77
2023/10/25 00:43:15;;;;;;;19.83;8.23;;;;;;;;;;2072863;28;20025;-75
2023/10/25 00:44:36;;;;;;;12.60;9.35;;;;;;;;;;2064199;28;20045;-76
2023/10/25 00:46:03;;;;;;;17.00;9.32;;;;;;;;;;2070008;28;20037;-76
2023/10/25 00:47:24;;;;;;;10.70;7.95;;;;;;;;;;2073346;28;20034;-76
2023/10/25 00:48:45;;;;;;;12.07;8.32;;;;;;;;;;2070761;28;20034;-76
2023/10/25 00:50:07;;;;;;;11.48;8.38;;;;;;;;;;2071777;28;20390;-76
2023/10/25 00:51:29;;;;;;;18.05;8.43;;;;;;;;;;2068237;28;20030;-76
2023/10/25 00:52:50;;;;;;;13.02;8.00;;;;;;;;;;2056491;28;20023;-76
2023/10/25 00:54:10;;;;;;;13.80;8.50;;;;;;;;;;2053309;28;20533;-77
2023/10/25 00:55:32;;;;;;;12.40;8.00;;;;;;;;;;2069789;28;20068;-75
2023/10/25 00:56:55;;;;;;;13.23;8.82;;;;;;;;;;2067664;28;20041;-75
2023/10/25 00:58:16;;;;;;;14.48;9.05;;;;;;;;;;2072807;28;20033;-76
2023/10/25 00:59:38;;;;;;;15.38;8.85;;;;;;;;;;2062915;28;20038;-75
2023/10/25 01:00:59;;;;;;;17.05;8.80;;;;;;;;;;2060583;28;20034;-77
2023/10/25 01:02:20;;;;;;;15.48;9.57;;;;;;;;;;2070698;28;20033;-75
2023/10/25 01:03:41;;;;;;;10.75;8.70;;;;;;;;;;2072289;28;20029;-75
2023/10/25 01:05:03;;;;;;;16.55;9.32;;;;;;;;;;2069664;28;20124;-76
2023/10/25 01:06:24;;;;;;;16.10;9.82;;;;;;;;;;2068283;28;20057;-76
2023/10/25 01:07:45;;;;;;;13.32;8.90;;;;;;;;;;2060664;28;20042;-75
2023/10/25 01:09:07;;;;;;;10.15;8.75;;;;;;;;;;2057828;28;20031;-75
2023/10/25 01:10:28;;;;;;;10.63;8.30;;;;;;;;;;2066218;28;20030;-75
2023/10/25 01:11:49;;;;;;;15.32;9.25;;;;;;;;;;2071317;28;20038;-76
2023/10/25 01:13:10;;;;;;;13.85;8.55;;;;;;;;;;2059613;28;20443;-76
2023/10/25 01:14:31;;;;;;;14.02;8.52;;;;;;;;;;2059627;28;20043;-76
2023/10/25 01:15:52;;;;;;;12.38;8.68;;;;;;;;;;2065602;28;20034;-76
2023/10/25 01:17:12;;;;;;;10.75;8.18;;;;;;;;;;2068501;28;20026;-76
2023/10/25 01:18:33;;;;;;;15.75;8.63;;;;;;;;;;2060170;28;20081;-75
2023/10/25 01:19:54;;;;;;;11.50;8.80;;;;;;;;;;2068027;28;20033;-76
2023/10/25 01:21:15;;;;;;;14.38;8.10;;;;;;;;;;2063291;28;20057;-76
2023/10/25 01:22:36;;;;;;;15.90;7.50;;;;;;;;;;2062523;28;20518;-76
2023/10/25 01:23:57;;;;;;;15.20;8.55;;;;;;;;;;2068461;28;20030;-76
2023/10/25 01:25:18;;;;;;;14.95;8.30;;;;;;;;;;2060788;28;20046;-76
2023/10/25 01:26:40;;;;;;;10.55;8.23;;;;;;;;;;2068259;28;20034;-76
2023/10/25 01:28:01;;;;;;;10.40;8.70;;;;;;;;;;2061248;28;20133;-76
2023/10/25 01:29:22;;;;;;;18.13;8.32;;;;;;;;;;2061685;28;20110;-76
2023/10/25 01:30:43;;;;;;;13.70;7.97;;;;;;;;;;2060364;28;20096;-77
2023/10/25 01:32:04;;;;;;;11.43;7.72;;;;;;;;;;2068706;28;20041;-76
2023/10/25 01:33:25;;;;;;;11.93;8.43;;;;;;;;;;2062569;28;20445;-76
2023/10/25 01:34:46;;;;;;;12.98;8.38;;;;;;;;;;2064401;28;20034;-76
2023/10/25 01:36:06;;;;;;;13.63;9.10;;;;;;;;;;2059595;28;20026;-76
2023/10/25 01:37:27;;;;;;;13.77;8.13;;;;;;;;;;2068423;28;20060;-76
2023/10/25 01:38:48;;;;;;;9.43;8.43;;;;;;;;;;2069221;28;20037;-76
2023/10/25 01:40:10;;;;;;;15.57;7.80;;;;;;;;;;2071549;28;20064;-77
2023/10/25 01:41:31;;;;;;;14.77;8.20;;;;;;;;;;2064414;28;20039;-76
2023/10/25 01:42:53;;;;;;;10.75;8.75;;;;;;;;;;2063978;28;20049;-77
2023/10/25 01:44:14;;;;;;;9.20;8.30;;;;;;;;;;2065020;28;20038;-77
2023/10/25 01:45:35;;;;;;;10.63;8.13;;;;;;;;;;2069975;28;20454;-76
2023/10/25 01:46:56;;;;;;;13.68;8.82;;;;;;;;;;2068117;28;20042;-77
2023/10/25 01:48:17;;;;;;;12.65;8.25;;;;;;;;;;2066654;28;20026;-76
2023/10/25 01:49:38;;;;;;;11.10;8.38;;;;;;;;;;2070417;28;20037;-77
2023/10/25 01:50:58;;;;;;;11.00;8.35;;;;;;;;;;2068279;28;20030;-77
2023/10/25 01:52:19;;;;;;;13.85;8.55;;;;;;;;;;2069865;28;20060;-76
2023/10/25 01:53:40;;;;;;;16.48;7.88;;;;;;;;;;2063265;28;20462;-77
2023/10/25 01:55:01;;;;;;;11.63;8.05;;;;;;;;;;2062292;28;20256;-78
2023/10/25 01:56:22;;;;;;;13.63;7.85;;;;;;;;;;2068379;28;20037;-77
2023/10/25 01:57:44;;;;;;;13.45;8.80;;;;;;;;;;2073373;28;20026;-76
2023/10/25 01:59:04;;;;;;;12.43;7.47;;;;;;;;;;2062819;28;20513;-77
2023/10/25 02:00:25;;;;;;;10.90;7.65;;;;;;;;;;2061908;28;20443;-76
2023/10/25 02:01:46;;;;;;;12.85;7.80;;;;;;;;;;2065079;28;20030;-76
2023/10/25 02:03:07;;;;;;;9.25;8.05;;;;;;;;;;2062707;28;20026;-77
2023/10/25 02:04:28;;;;;;;11.77;8.15;;;;;;;;;;2068191;28;20030;-77
2023/10/25 02:05:49;;;;;;;10.40;6.97;;;;;;;;;;2072883;28;20498;-77
2023/10/25 02:07:10;;;;;;;12.32;8.20;;;;;;;;;;2063358;28;20034;-77
2023/10/25 02:08:31;;;;;;;11.68;8.50;;;;;;;;;;2061875;28;20034;-76
2023/10/25 02:09:52;;;;;;;12.02;8.18;;;;;;;;;;2067927;28;20100;-76
2023/10/25 02:11:15;;;;;;;13.38;8.50;;;;;;;;;;2070969;28;20042;-77
2023/10/25 02:12:36;;;;;;;12.82;7.88;;;;;;;;;;2063280;28;20127;-77
2023/10/25 02:13:57;;;;;;;12.63;6.95;;;;;;;;;;2070347;28;20394;-76
2023/10/25 02:15:18;;;;;;;10.95;8.10;;;;;;;;;;2068115;28;20046;-76
2023/10/25 02:16:39;;;;;;;14.73;8.77;;;;;;;;;;2063392;28;20474;-77
2023/10/25 02:18:00;;;;;;;8.98;7.35;;;;;;;;;;2063745;28;20475;-76
2023/10/25 02:19:21;;;;;;;11.07;8.52;;;;;;;;;;2072041;28;20057;-77
2023/10/25 02:20:42;;;;;;;12.85;8.18;;;;;;;;;;2070697;28;20088;-77
2023/10/25 02:22:03;;;;;;;12.60;8.73;;;;;;;;;;2062946;28;20061;-76
2023/10/25 02:23:24;;;;;;;14.90;9.35;;;;;;;;;;2068437;28;20045;-76
2023/10/25 02:24:45;;;;;;;11.38;8.18;;;;;;;;;;2063112;28;20422;-76
2023/10/25 02:26:06;;;;;;;11.40;8.55;;;;;;;;;;2069087;28;20038;-77
2023/10/25 02:27:27;;;;;;;12.77;7.57;;;;;;;;;;2063314;28;20510;-77
2023/10/25 02:28:48;;;;;;;13.27;7.47;;;;;;;;;;2070899;28;20057;-76
2023/10/25 02:30:09;;;;;;;12.52;8.85;;;;;;;;;;2069621;28;20041;-77
2023/10/25 02:31:32;;;;;;;10.48;8.07;;;;;;;;;;2071676;28;21285;-76
2023/10/25 02:32:53;;;;;;;14.57;8.75;;;;;;;;;;2068944;28;20026;-77
2023/10/25 02:34:13;;;;;;;13.15;7.82;;;;;;;;;;2072647;28;20029;-77
2023/10/25 02:35:34;;;;;;;11.20;8.10;;;;;;;;;;2067080;28;20043;-77
2023/10/25 02:36:55;;;;;;;10.95;8.15;;;;;;;;;;2071437;28;20140;-75
2023/10/25 02:38:16;;;;;;;9.77;7.80;;;;;;;;;;2064889;28;20038;-75
2023/10/25 02:39:37;;;;;;;11.43;7.10;;;;;;;;;;2068735;28;20575;-77
2023/10/25 02:40:58;;;;;;;16.42;8.82;;;;;;;;;;2068212;28;20033;-77
2023/10/25 02:42:19;;;;;;;12.32;8.18;;;;;;;;;;2072421;28;20534;-78
2023/10/25 02:43:40;;;;;;;13.40;8.02;;;;;;;;;;2062846;28;20114;-77
2023/10/25 02:45:01;;;;;;;10.40;8.35;;;;;;;;;;2066766;28;20026;-76
2023/10/25 02:46:22;;;;;;;11.73;7.97;;;;;;;;;;2071568;28;20084;-77
2023/10/25 02:47:43;;;;;;;10.30;8.05;;;;;;;;;;2060625;28;20038;-77
2023/10/25 02:49:04;;;;;;;12.05;7.63;;;;;;;;;;2061996;28;20089;-78
2023/10/25 02:50:24;;;;;;;12.77;8.77;;;;;;;;;;2057747;28;20031;-77
2023/10/25 02:51:45;;;;;;;15.57;7.95;;;;;;;;;;2076198;28;20029;-78
2023/10/25 02:53:06;;;;;;;10.63;9.02;;;;;;;;;;2062880;28;20130;-77
2023/10/25 02:54:27;;;;;;;14.50;8.60;;;;;;;;;;2065868;28;20033;-77
2023/10/25 02:55:48;;;;;;;13.73;8.73;;;;;;;;;;2069133;28;20088;-78
2023/10/25 02:57:09;;;;;;;11.05;7.88;;;;;;;;;;2070473;28;20037;-78
2023/10/25 02:58:30;;;;;;;15.88;8.32;;;;;;;;;;2070253;28;20112;-77
2023/10/25 02:59:51;;;;;;;12.98;7.65;;;;;;;;;;2068616;28;20060;-77
2023/10/25 03:01:22;;;;;;;13.75;7.70;;;;;;;;;;2069369;28;20445;-78
2023/10/25 03:02:43;;;;;;;9.85;7.53;;;;;;;;;;2075367;28;20046;-77
2023/10/25 03:04:04;;;;;;;10.13;8.40;;;;;;;;;;2060072;28;20038;-78
2023/10/25 03:05:25;;;;;;;15.85;8.73;;;;;;;;;;2066172;28;20041;-77
2023/10/25 03:06:47;;;;;;;12.48;8.60;;;;;;;;;;2071004;28;20060;-78
2023/10/25 03:08:08;;;;;;;13.90;8.52;;;;;;;;;;2070655;28;20049;-77
2023/10/25 03:09:29;;;;;;;13.13;7.57;;;;;;;;;;2069870;28;20026;-77
2023/10/25 03:10:50;;;;;;;11.77;7.60;;;;;;;;;;2070711;28;20034;-77
2023/10/25 03:12:11;;;;;;;13.10;7.70;;;;;;;;;;2069979;28;20092;-78
2023/10/25 03:13:32;;;;;;;8.93;7.43;;;;;;;;;;2070058;28;20132;-77
2023/10/25 03:14:52;;;;;;;14.02;8.70;;;;;;;;;;2069549;28;20030;-78
2023/10/25 03:16:13;;;;;;;12.40;8.20;;;;;;;;;;2061228;28;20466;-77
2023/10/25 03:17:34;;;;;;;14.70;7.85;;;;;;;;;;2059888;28;20050;-77
2023/10/25 03:18:55;;;;;;;11.25;8.10;;;;;;;;;;2064299;28;20584;-77
2023/10/25 03:20:16;;;;;;;14.38;8.48;;;;;;;;;;2066537;28;20052;-78
2023/10/25 03:21:37;;;;;;;10.43;7.45;;;;;;;;;;2069664;28;20107;-77
2023/10/25 03:22:58;;;;;;;13.07;8.05;;;;;;;;;;2065384;28;20053;-77
2023/10/25 03:24:19;;;;;;;10.93;7.72;;;;;;;;;;2066372;28;20044;-77
2023/10/25 03:25:40;;;;;;;12.48;8.55;;;;;;;;;;2062015;28;20050;-77
2023/10/25 03:27:00;;;;;;;11.23;7.72;;;;;;;;;;2070085;28;20903;-76
2023/10/25 03:28:21;;;;;;;8.88;7.75;;;;;;;;;;2062977;28;20104;-76
2023/10/25 03:29:42;;;;;;;13.73;8.68;;;;;;;;;;2062403;28;20158;-75
2023/10/25 03:31:04;;;;;;;11.93;7.88;;;;;;;;;;2060723;28;20023;-75
2023/10/25 03:32:25;;;;;;;12.93;8.43;;;;;;;;;;2068088;28;20030;-75
2023/10/25 03:33:47;;;;;;;10.65;8.48;;;;;;;;;;2063279;28;20093;-76
2023/10/25 03:35:08;;;;;;;25.40;8.15;;;;;;;;;;2064289;28;20042;-75
2023/10/25 03:36:28;;;;;;;14.10;7.80;;;;;;;;;;2072220;28;20030;-75
2023/10/25 03:37:49;;;;;;;14.38;8.18;;;;;;;;;;2066581;28;20061;-76
2023/10/25 03:39:14;;;;;;;11.77;7.80;;;;;;;;;;2061805;28;20050;-76
2023/10/25 03:40:34;;;;;;;13.32;8.27;;;;;;;;;;2067203;28;20125;-77
2023/10/25 03:41:55;;;;;;;14.25;7.85;;;;;;;;;;2065641;28;20035;-76
2023/10/25 03:43:16;;;;;;;11.70;8.32;;;;;;;;;;2069975;28;20026;-77
2023/10/25 03:44:37;;;;;;;14.32;8.10;;;;;;;;;;2074245;28;20041;-77
2023/10/25 03:46:04;;;;;;;14.10;8.43;;;;;;;;;;2070946;28;20042;-77
2023/10/25 03:47:25;;;;;;;14.65;8.25;;;;;;;;;;2073458;28;20026;-76
2023/10/25 03:48:46;;;;;;;15.80;8.68;;;;;;;;;;2073685;28;20217;-77
2023/10/25 03:50:07;;;;;;;12.27;7.72;;;;;;;;;;2073036;28;20438;-77
2023/10/25 03:51:28;;;;;;;14.15;8.20;;;;;;;;;;2068049;28;20030;-77
2023/10/25 03:52:49;;;;;;;12.77;7.90;;;;;;;;;;2064226;28;20419;-77
2023/10/25 03:54:10;;;;;;;17.33;9.23;;;;;;;;;;2068209;28;20026;-76
2023/10/25 03:55:31;;;;;;;14.88;8.55;;;;;;;;;;2063501;28;20034;-75
2023/10/25 03:56:51;;;;;;;15.63;8.38;;;;;;;;;;2069162;28;20030;-76
2023/10/25 03:58:12;;;;;;;16.60;8.60;;;;;;;;;;2071118;28;20390;-77
2023/10/25 03:59:33;;;;;;;14.40;8.32;;;;;;;;;;2077914;28;20025;-76
2023/10/25 04:01:00;;;;;;;19.55;8.95;;;;;;;;;;2060568;28;20026;-76
2023/10/25 04:02:21;;;;;;;12.90;7.35;;;;;;;;;;2073221;28;20496;-77
2023/10/25 04:03:42;;;;;;;14.77;8.95;;;;;;;;;;2064449;28;20031;-77
2023/10/25 04:05:03;;;;;;;17.20;9.60;;;;;;;;;;2068776;28;20093;-77
2023/10/25 04:06:24;;;;;;;16.33;9.48;;;;;;;;;;2061588;28;20026;-76
2023/10/25 04:07:45;;;;;;;15.13;8.48;;;;;;;;;;2068531;28;20033;-76
2023/10/25 04:09:08;;;;;;;18.60;9.68;;;;;;;;;;2062263;28;20497;-76
2023/10/25 04:10:29;;;;;;;15.30;9.23;;;;;;;;;;2068073;28;20038;-77
2023/10/25 04:11:50;;;;;;;13.25;8.20;;;;;;;;;;2072498;28;20030;-76
2023/10/25 04:13:10;;;;;;;18.60;9.52;;;;;;;;;;2070660;28;20034;-77
2023/10/25 04:14:31;;;;;;;15.80;9.70;;;;;;;;;;2067476;28;20413;-77
2023/10/25 04:15:59;;;;;;;16.52;9.98;;;;;;;;;;2063299;28;20101;-76
2023/10/25 04:17:20;;;;;;;14.80;10.35;;;;;;;;;;2071064;28;20053;-78
2023/10/25 04:18:41;;;;;;;18.23;9.27;;;;;;;;;;2069671;28;20456;-77
2023/10/25 04:20:02;;;;;;;14.57;10.77;;;;;;;;;;2069632;28;20046;-77
2023/10/25 04:21:23;;;;;;;13.20;9.97;;;;;;;;;;2070286;28;20034;-78
2023/10/25 04:22:44;;;;;;;11.45;9.35;;;;;;;;;;2062008;28;20515;-77
2023/10/25 04:24:05;;;;;;;19.23;10.32;;;;;;;;;;2058854;28;20148;-77
2023/10/25 04:25:26;;;;;;;17.90;10.55;;;;;;;;;;2063079;28;20038;-78
2023/10/25 04:26:47;;;;;;;11.05;9.65;;;;;;;;;;2071088;28;20029;-77
2023/10/25 04:28:08;;;;;;;15.23;10.40;;;;;;;;;;2058866;28;20100;-78
2023/10/25 04:29:30;;;;;;;15.75;9.13;;;;;;;;;;2059347;28;20518;-76
2023/10/25 04:30:51;;;;;;;20.23;9.93;;;;;;;;;;2057418;28;20556;-76
2023/10/25 04:32:12;;;;;;;11.93;9.57;;;;;;;;;;2065994;28;20037;-76
2023/10/25 04:33:33;;;;;;;17.15;9.52;;;;;;;;;;2062485;28;20034;-76
2023/10/25 04:34:53;;;;;;;17.00;10.02;;;;;;;;;;2058913;28;20034;-78
2023/10/25 04:36:14;;;;;;;16.92;9.15;;;;;;;;;;2063982;28;20050;-77
2023/10/25 04:37:35;;;;;;;17.35;10.05;;;;;;;;;;2057845;28;20030;-77
2023/10/25 04:38:56;;;;;;;17.50;10.00;;;;;;;;;;2064982;28;20038;-76
2023/10/25 04:40:17;;;;;;;16.52;10.45;;;;;;;;;;2060732;28;20401;-78
2023/10/25 04:41:38;;;;;;;22.02;10.38;;;;;;;;;;2057270;28;20045;-77
2023/10/25 04:42:59;;;;;;;18.15;10.52;;;;;;;;;;2067081;28;20074;-77
2023/10/25 04:44:20;;;;;;;11.48;9.15;;;;;;;;;;2062658;28;20501;-77
2023/10/25 04:45:41;;;;;;;12.65;9.38;;;;;;;;;;2061504;28;20030;-77
2023/10/25 04:47:02;;;;;;;14.27;9.93;;;;;;;;;;2062060;28;20049;-77
2023/10/25 04:48:23;;;;;;;15.00;9.82;;;;;;;;;;2059407;28;20031;-77
2023/10/25 04:49:44;;;;;;;17.08;9.73;;;;;;;;;;2058525;28;20034;-77
2023/10/25 04:51:05;;;;;;;10.68;9.48;;;;;;;;;;2060972;28;20038;-78
2023/10/25 04:52:26;;;;;;;12.50;9.27;;;;;;;;;;2061270;28;20580;-78
2023/10/25 04:53:46;;;;;;;15.82;9.82;;;;;;;;;;2062778;28;20057;-77
2023/10/25 04:55:08;;;;;;;14.80;10.18;;;;;;;;;;2065162;28;20026;-77
2023/10/25 04:56:28;;;;;;;13.70;9.30;;;;;;;;;;2070770;28;20366;-77
2023/10/25 04:57:49;;;;;;;15.82;9.35;;;;;;;;;;2059294;28;20067;-78
2023/10/25 04:59:10;;;;;;;14.45;9.98;;;;;;;;;;2067999;28;20135;-77
2023/10/25 05:00:32;;;;;;;13.30;9.23;;;;;;;;;;2070253;28;20406;-77
2023/10/25 05:01:52;;;;;;;12.27;8.93;;;;;;;;;;2072244;28;20022;-77
2023/10/25 05:03:13;;;;;;;22.48;9.88;;;;;;;;;;2060711;28;20038;-77
2023/10/25 05:04:34;;;;;;;11.32;8.75;;;;;;;;;;2058656;28;20043;-77
2023/10/25 05:05:56;;;;;;;11.30;8.98;;;;;;;;;;2066881;28;20092;-78
2023/10/25 05:07:17;;;;;;;12.18;8.63;;;;;;;;;;2069178;28;20042;-77
2023/10/25 05:08:38;;;;;;;14.00;8.45;;;;;;;;;;2062780;28;20042;-77
2023/10/25 05:10:00;;;;;;;13.73;9.32;;;;;;;;;;2066610;28;20036;-77
2023/10/25 05:11:24;;;;;;;14.38;8.43;;;;;;;;;;2068726;28;20041;-78
2023/10/25 05:12:45;;;;;;;12.45;9.30;;;;;;;;;;2062099;28;20034;-78
2023/10/25 05:14:06;;;;;;;14.27;9.00;;;;;;;;;;2060436;28;20042;-77
2023/10/25 05:15:28;;;;;;;14.75;9.52;;;;;;;;;;2069077;28;20112;-77
2023/10/25 05:16:49;;;;;;;16.65;8.95;;;;;;;;;;2069904;28;20152;-77
2023/10/25 05:18:10;;;;;;;18.45;9.90;;;;;;;;;;2070351;28;20118;-77
2023/10/25 05:19:31;;;;;;;16.17;9.45;;;;;;;;;;2063121;28;20460;-77
2023/10/25 05:21:02;;;;;;;13.45;8.25;;;;;;;;;;2058323;28;20035;-77
2023/10/25 05:22:25;;;;;;;12.13;8.15;;;;;;;;;;2061444;28;20065;-77
2023/10/25 05:23:46;;;;;;;13.90;9.50;;;;;;;;;;2060230;28;20093;-77
2023/10/25 05:25:08;;;;;;;13.73;9.65;;;;;;;;;;2064499;28;20068;-76
2023/10/25 05:26:29;;;;;;;13.73;9.48;;;;;;;;;;2063395;28;20038;-76
2023/10/25 05:27:50;;;;;;;11.55;9.25;;;;;;;;;;2068123;28;20393;-77
2023/10/25 05:29:11;;;;;;;10.32;8.35;;;;;;;;;;2069260;28;20108;-77
2023/10/25 05:30:32;;;;;;;14.85;9.30;;;;;;;;;;2071165;28;20037;-76
2023/10/25 05:31:55;;;;;;;13.30;9.20;;;;;;;;;;2070938;28;20076;-76
2023/10/25 05:33:17;;;;;;;12.45;9.30;;;;;;;;;;2071276;28;20512;-77
2023/10/25 05:34:39;;;;;;;11.57;8.55;;;;;;;;;;2064153;28;20030;-77
2023/10/25 05:36:00;;;;;;;12.38;8.35;;;;;;;;;;2074087;28;20037;-77
2023/10/25 05:37:21;;;;;;;13.20;9.52;;;;;;;;;;2072215;28;20022;-78
2023/10/25 05:38:42;;;;;;;11.88;8.18;;;;;;;;;;2063886;28;20038;-77
2023/10/25 05:40:04;;;;;;;18.30;9.80;;;;;;;;;;2068698;28;20034;-78
2023/10/25 05:41:25;;;;;;;9.75;8.75;;;;;;;;;;2054814;28;20035;-78
2023/10/25 05:42:47;;;;;;;11.10;8.65;;;;;;;;;;2068351;28;20040;-77
2023/10/25 05:44:14;;;;;;;16.60;9.07;;;;;;;;;;2070505;28;20037;-77
2023/10/25 05:45:36;;;;;;;10.32;8.48;;;;;;;;;;2061664;28;20047;-78
2023/10/25 05:46:57;;;;;;;13.48;8.30;;;;;;;;;;2070525;28;20105;-77
2023/10/25 05:48:18;;;;;;;11.18;8.15;;;;;;;;;;2071389;28;20497;-77
2023/10/25 05:49:39;;;;;;;14.75;8.40;;;;;;;;;;2070771;28;20069;-77
2023/10/25 05:51:02;;;;;;;13.95;8.90;;;;;;;;;;2064711;28;20042;-77
2023/10/25 05:52:23;;;;;;;13.68;9.60;;;;;;;;;;2060257;28;20685;-77
2023/10/25 05:53:46;;;;;;;13.30;9.32;;;;;;;;;;2062145;28;20042;-77
2023/10/25 05:55:07;;;;;;;10.82;8.48;;;;;;;;;;2067059;28;20413;-78
2023/10/25 05:56:28;;;;;;;12.32;8.50;;;;;;;;;;2070159;28;20045;-78
2023/10/25 05:57:49;;;;;;;13.35;8.23;;;;;;;;;;2067852;28;20034;-77
2023/10/25 05:59:10;;;;;;;9.73;8.23;;;;;;;;;;2071526;28;20042;-77
2023/10/25 06:00:31;;;;;;;11.15;8.23;;;;;;;;;;2062681;28;20034;-77
2023/10/25 06:02:14;;;;;;;10.57;8.63;;;;;;;;;;2063893;28;20039;-77
2023/10/25 06:03:35;;;;;;;;;;;;;;;;;;2064686;28;20038;-77
2023/10/25 06:04:56;;;;;;;15.27;9.15;;;;;;;;;;2067858;28;19909;-77
2023/10/25 06:06:19;;;;;;;12.38;10.82;;;;;;;;;;2072565;28;20046;-77
2023/10/25 06:07:41;;;;;;;15.60;7.90;;;;;;;;;;2064933;28;20405;-76
2023/10/25 06:09:02;;;;;;;11.15;7.57;;;;;;;;;;2072736;28;20408;-76
2023/10/25 06:10:23;;;;;;;10.40;7.65;;;;;;;;;;2065557;28;20026;-76
2023/10/25 06:11:44;;;;;;;15.18;8.50;;;;;;;;;;2072946;28;20125;-78
2023/10/25 06:13:05;;;;;;;11.70;8.32;;;;;;;;;;2072556;28;20033;-78
2023/10/25 06:14:27;;;;;;;14.27;8.75;;;;;;;;;;2073475;28;20034;-78
2023/10/25 06:15:48;;;;;;;10.95;8.57;;;;;;;;;;2057278;28;20465;-78
2023/10/25 06:17:09;;;;;;;14.05;9.07;;;;;;;;;;2064271;28;20026;-79
2023/10/25 06:18:30;;;;;;;10.93;8.55;;;;;;;;;;2071961;28;20030;-78
2023/10/25 06:19:52;;;;;;;10.85;9.43;;;;;;;;;;2063806;28;20109;-78
2023/10/25 06:21:13;;;;;;;13.50;8.23;;;;;;;;;;2068350;28;20084;-78
2023/10/25 06:22:34;;;;;;;10.13;8.10;;;;;;;;;;2077892;28;20030;-77
2023/10/25 06:23:55;;;;;;;9.50;7.70;;;;;;;;;;2056701;28;20104;-78
2023/10/25 06:25:16;;;;;;;11.35;7.93;;;;;;;;;;2055847;28;20023;-78
2023/10/25 06:26:37;;;;;;;14.77;8.95;;;;;;;;;;2063407;28;20518;-78
2023/10/25 06:27:59;;;;;;;9.68;8.35;;;;;;;;;;2066468;28;20172;-78
2023/10/25 06:29:20;;;;;;;;;;;;;;;;;;2073848;28;20045;-78
2023/10/25 06:30:40;;;;;;;10.10;7.88;;;;;;;;;;2068851;28;20136;-78
2023/10/25 06:32:01;;;;;;;14.15;7.97;;;;;;;;;;2073584;28;20029;-77
2023/10/25 06:33:24;;;;;;;14.70;8.77;;;;;;;;;;2081624;28;20022;-77
2023/10/25 06:34:45;;;;;;;12.93;8.35;;;;;;;;;;2078715;28;20032;-78
2023/10/25 06:36:07;;;;;;;8.43;7.10;;;;;;;;;;2066724;28;20088;-78
2023/10/25 06:37:28;;;;;;;11.23;8.20;;;;;;;;;;2072101;28;20022;-78
2023/10/25 06:38:49;;;;;;;15.00;8.88;;;;;;;;;;2078982;28;20021;-76
2023/10/25 06:40:10;;;;;;;10.45;7.97;;;;;;;;;;2077611;28;20026;-77
2023/10/25 06:41:32;;;;;;;12.70;8.35;;;;;;;;;;2064225;28;20034;-77
2023/10/25 06:42:53;;;;;;;12.52;8.93;;;;;;;;;;2060068;28;20034;-76
2023/10/25 06:44:14;;;;;;;12.15;8.45;;;;;;;;;;2062301;28;20379;-75
2023/10/25 06:45:35;;;;;;;11.43;8.55;;;;;;;;;;2067579;28;20033;-76
2023/10/25 06:46:56;;;;;;;15.93;8.68;;;;;;;;;;2065713;28;20050;-77
2023/10/25 06:48:17;;;;;;;12.93;7.65;;;;;;;;;;2069237;28;20037;-77
2023/10/25 06:49:38;;;;;;;11.35;8.45;;;;;;;;;;2071815;28;20042;-77
2023/10/25 06:50:59;;;;;;;13.52;8.60;;;;;;;;;;2069953;28;20037;-76
2023/10/25 06:52:20;;;;;;;11.10;8.52;;;;;;;;;;2070718;28;20033;-76
2023/10/25 06:53:41;;;;;;;15.35;8.88;;;;;;;;;;2065930;28;20382;-76
2023/10/25 06:55:02;;;;;;;13.80;8.35;;;;;;;;;;2070759;28;20034;-77
2023/10/25 06:56:23;;;;;;;13.45;8.15;;;;;;;;;;2068499;28;20354;-76
2023/10/25 06:57:44;;;;;;;11.35;8.10;;;;;;;;;;2068348;28;20026;-78
2023/10/25 06:59:06;;;;;;;13.75;8.95;;;;;;;;;;2072836;28;20026;-76
2023/10/25 07:00:27;;;;;;;12.00;8.43;;;;;;;;;;2072443;28;20418;-77
2023/10/25 07:01:52;;;;;;;12.80;9.00;;;;;;;;;;2073953;28;20401;-76
2023/10/25 07:03:13;;;;;;;14.68;8.50;;;;;;;;;;2072188;28;20068;-76
2023/10/25 07:04:34;;;;;;;12.07;8.35;;;;;;;;;;2071777;28;20037;-77
2023/10/25 07:05:55;;;;;;;10.18;8.07;;;;;;;;;;2066335;28;20493;-77
2023/10/25 07:07:18;;;;;;;12.05;8.02;;;;;;;;;;2074820;28;20022;-77
2023/10/25 07:08:39;;;;;;;12.15;8.32;;;;;;;;;;2071326;28;20493;-76
2023/10/25 07:10:00;;;;;;;13.52;8.13;;;;;;;;;;2065532;28;20058;-77
2023/10/25 07:11:21;;;;;;;10.40;7.97;;;;;;;;;;2073067;28;20034;-76
2023/10/25 07:12:41;;;;;;;13.27;9.10;;;;;;;;;;2071433;28;20034;-77
2023/10/25 07:14:02;;;;;;;9.65;7.47;;;;;;;;;;2064402;28;20018;-77
2023/10/25 07:15:24;;;;;;;10.15;7.20;;;;;;;;;;2071216;28;20514;-77
2023/10/25 07:16:45;;;;;;;10.63;7.65;;;;;;;;;;2063369;28;20038;-74
2023/10/25 07:18:06;;;;;;;9.90;7.70;;;;;;;;;;2064958;28;20046;-77
2023/10/25 07:19:27;;;;;;;13.18;7.70;;;;;;;;;;2071268;28;20029;-77
2023/10/25 07:20:48;;;;;;;10.93;8.00;;;;;;;;;;2072021;28;20497;-76
2023/10/25 07:22:09;;;;;;;11.95;7.97;;;;;;;;;;2069680;28;20042;-77
2023/10/25 07:23:30;;;;;;;10.50;7.75;;;;;;;;;;2069278;28;20030;-77
2023/10/25 07:24:51;;;;;;;13.65;8.00;;;;;;;;;;2059069;28;20049;-76
2023/10/25 07:26:12;;;;;;;11.48;7.63;;;;;;;;;;2068764;28;20034;-76
2023/10/25 07:27:33;;;;;;;9.52;7.28;;;;;;;;;;2073347;28;20033;-77
2023/10/25 07:28:54;;;;;;;11.52;7.30;;;;;;;;;;2071429;28;20026;-76
2023/10/25 07:30:15;;;;;;;10.02;7.78;;;;;;;;;;2073382;28;20042;-77
2023/10/25 07:31:35;;;;;;;14.35;7.22;;;;;;;;;;2065092;28;20038;-76
2023/10/25 07:32:56;;;;;;;11.23;6.30;;;;;;;;;;2063815;28;20053;-76
2023/10/25 07:34:17;;;;;;;10.80;7.10;;;;;;;;;;2065566;28;20041;-77
2023/10/25 07:35:38;;;;;;;11.23;7.85;;;;;;;;;;2069918;28;20528;-77
2023/10/25 07:36:59;;;;;;;8.63;7.53;;;;;;;;;;2063274;28;20030;-77
2023/10/25 07:38:20;;;;;;;10.70;7.28;;;;;;;;;;2062686;28;20031;-76
2023/10/25 07:39:41;;;;;;;11.75;7.25;;;;;;;;;;2069535;28;20053;-77
2023/10/25 07:41:02;;;;;;;8.88;6.95;;;;;;;;;;2070386;28;20037;-76
2023/10/25 07:42:23;;;;;;;12.15;7.05;;;;;;;;;;2070037;28;20046;-78
2023/10/25 07:43:44;;;;;;;9.98;7.78;;;;;;;;;;2052523;28;20097;-77
2023/10/25 07:45:05;;;;;;;11.63;7.90;;;;;;;;;;2067240;28;20034;-77
2023/10/25 07:46:26;;;;;;;11.75;6.60;;;;;;;;;;2062159;28;20077;-77
2023/10/25 07:47:47;;;;;;;12.35;7.38;;;;;;;;;;2070303;28;20033;-76
2023/10/25 07:49:08;;;;;;;13.93;7.70;;;;;;;;;;2065284;28;20405;-77
2023/10/25 07:50:30;;;;;;;12.85;7.72;;;;;;;;;;2069880;28;20053;-76
2023/10/25 07:51:54;;;;;;;8.63;7.53;;;;;;;;;;2070496;28;20084;-78
2023/10/25 07:53:15;;;;;;;10.40;7.93;;;;;;;;;;2066686;28;20031;-76
2023/10/25 07:54:36;;;;;;;8.57;7.18;;;;;;;;;;2070869;28;20033;-77
2023/10/25 07:56:00;;;;;;;10.07;7.60;;;;;;;;;;2071107;28;20037;-76
2023/10/25 07:57:22;;;;;;;8.40;7.30;;;;;;;;;;2073089;28;20037;-77
2023/10/25 07:58:44;;;;;;;9.82;8.82;;;;;;;;;;2064181;28;20037;-76
2023/10/25 08:00:05;;;;;;;10.05;7.45;;;;;;;;;;2054544;28;20058;-76